sensor_id;sensor_type;location;lat;lon;timestamp;P1;durP1;ratioP1;P2;durP2;ratioP2
13941;SDS011;7043;51.630;7.254;2022-09-21T00:00:29;9.17;;;6.50;;
13941;SDS011;7043;51.630;7.254;2022-09-21T00:02:55;8.63;;;7.03;;
13941;SDS011;7043;51.630;7.254;2022-09-21T00:05:22;7.70;;;6.83;;
13941;SDS011;7043;51.630;7.254;2022-09-21T00:07:49;8.00;;;6.00;;
13941;SDS011;7043;51.630;7.254;2022-09-21T00:10:15;7.80;;;6.30;;
13941;SDS011;7043;51.630;7.254;2022-09-21T00:12:41;6.93;;;6.23;;
13941;SDS011;7043;51.630;7.254;2022-09-21T00:15:08;7.10;;;6.40;;
13941;SDS011;7043;51.630;7.254;2022-09-21T00:17:35;8.57;;;6.33;;
13941;SDS011;7043;51.630;7.254;2022-09-21T00:20:02;7.03;;;6.13;;
13941;SDS011;7043;51.630;7.254;2022-09-21T00:22:32;7.27;;;6.40;;
13941;SDS011;7043;51.630;7.254;2022-09-21T00:24:58;9.00;;;6.67;;
13941;SDS011;7043;51.630;7.254;2022-09-21T00:27:28;7.83;;;6.60;;
13941;SDS011;7043;51.630;7.254;2022-09-21T00:29:58;7.63;;;6.33;;
13941;SDS011;7043;51.630;7.254;2022-09-21T00:32:29;7.97;;;6.43;;
13941;SDS011;7043;51.630;7.254;2022-09-21T00:34:58;7.50;;;6.27;;
13941;SDS011;7043;51.630;7.254;2022-09-21T00:37:25;7.77;;;6.50;;
13941;SDS011;7043;51.630;7.254;2022-09-21T00:39:51;9.17;;;7.00;;
13941;SDS011;7043;51.630;7.254;2022-09-21T00:44:47;9.30;;;7.53;;
13941;SDS011;7043;51.630;7.254;2022-09-21T00:47:13;8.90;;;7.23;;
13941;SDS011;7043;51.630;7.254;2022-09-21T00:49:40;9.90;;;7.37;;
13941;SDS011;7043;51.630;7.254;2022-09-21T00:52:07;8.50;;;7.50;;
13941;SDS011;7043;51.630;7.254;2022-09-21T00:54:38;10.20;;;8.00;;
13941;SDS011;7043;51.630;7.254;2022-09-21T00:57:06;9.87;;;7.50;;
13941;SDS011;7043;51.630;7.254;2022-09-21T00:59:33;8.27;;;7.10;;
13941;SDS011;7043;51.630;7.254;2022-09-21T01:02:00;9.53;;;7.20;;
13941;SDS011;7043;51.630;7.254;2022-09-21T01:04:26;8.43;;;6.63;;
13941;SDS011;7043;51.630;7.254;2022-09-21T01:06:53;7.20;;;6.50;;
13941;SDS011;7043;51.630;7.254;2022-09-21T01:09:19;7.63;;;6.87;;
13941;SDS011;7043;51.630;7.254;2022-09-21T01:30:06;6.90;;;6.20;;
13941;SDS011;7043;51.630;7.254;2022-09-21T01:32:39;8.03;;;6.13;;
13941;SDS011;7043;51.630;7.254;2022-09-21T01:35:08;6.27;;;5.67;;
13941;SDS011;7043;51.630;7.254;2022-09-21T01:37:40;9.37;;;6.80;;
13941;SDS011;7043;51.630;7.254;2022-09-21T01:40:08;9.00;;;6.80;;
13941;SDS011;7043;51.630;7.254;2022-09-21T01:42:36;7.63;;;6.90;;
13941;SDS011;7043;51.630;7.254;2022-09-21T01:45:03;10.13;;;6.60;;
13941;SDS011;7043;51.630;7.254;2022-09-21T01:47:31;8.13;;;6.70;;
13941;SDS011;7043;51.630;7.254;2022-09-21T01:49:58;6.50;;;5.90;;
13941;SDS011;7043;51.630;7.254;2022-09-21T01:52:29;7.57;;;6.30;;
13941;SDS011;7043;51.630;7.254;2022-09-21T01:55:02;8.47;;;6.53;;
13941;SDS011;7043;51.630;7.254;2022-09-21T01:57:38;8.13;;;6.60;;
13941;SDS011;7043;51.630;7.254;2022-09-21T02:00:05;7.37;;;6.43;;
13941;SDS011;7043;51.630;7.254;2022-09-21T02:02:46;7.10;;;6.40;;
13941;SDS011;7043;51.630;7.254;2022-09-21T02:05:14;6.87;;;5.80;;
13941;SDS011;7043;51.630;7.254;2022-09-21T02:07:41;9.47;;;6.40;;
13941;SDS011;7043;51.630;7.254;2022-09-21T02:10:08;6.50;;;5.80;;
13941;SDS011;7043;51.630;7.254;2022-09-21T02:12:36;5.97;;;5.43;;
13941;SDS011;7043;51.630;7.254;2022-09-21T02:15:02;6.87;;;6.00;;
13941;SDS011;7043;51.630;7.254;2022-09-21T02:20:04;6.50;;;5.90;;
13941;SDS011;7043;51.630;7.254;2022-09-21T02:22:36;6.93;;;6.13;;
13941;SDS011;7043;51.630;7.254;2022-09-21T02:25:19;7.37;;;6.40;;
13941;SDS011;7043;51.630;7.254;2022-09-21T02:30:19;7.00;;;6.30;;
13941;SDS011;7043;51.630;7.254;2022-09-21T02:40:34;8.40;;;6.77;;
13941;SDS011;7043;51.630;7.254;2022-09-21T02:43:04;7.67;;;6.97;;
13941;SDS011;7043;51.630;7.254;2022-09-21T02:45:31;7.60;;;6.80;;
13941;SDS011;7043;51.630;7.254;2022-09-21T02:48:34;7.70;;;6.90;;
13941;SDS011;7043;51.630;7.254;2022-09-21T02:50:56;8.63;;;7.73;;
13941;SDS011;7043;51.630;7.254;2022-09-21T02:53:24;8.50;;;7.60;;
13941;SDS011;7043;51.630;7.254;2022-09-21T02:55:51;8.37;;;7.53;;
13941;SDS011;7043;51.630;7.254;2022-09-21T02:58:18;7.67;;;6.83;;
13941;SDS011;7043;51.630;7.254;2022-09-21T03:00:45;9.90;;;7.47;;
13941;SDS011;7043;51.630;7.254;2022-09-21T03:03:20;8.57;;;7.33;;
13941;SDS011;7043;51.630;7.254;2022-09-21T03:05:47;8.30;;;7.43;;
13941;SDS011;7043;51.630;7.254;2022-09-21T03:08:14;9.33;;;7.87;;
13941;SDS011;7043;51.630;7.254;2022-09-21T03:10:40;8.50;;;7.60;;
13941;SDS011;7043;51.630;7.254;2022-09-21T03:13:07;8.93;;;7.67;;
13941;SDS011;7043;51.630;7.254;2022-09-21T03:15:33;8.60;;;7.40;;
13941;SDS011;7043;51.630;7.254;2022-09-21T03:18:00;8.27;;;7.47;;
13941;SDS011;7043;51.630;7.254;2022-09-21T03:20:28;8.27;;;7.20;;
13941;SDS011;7043;51.630;7.254;2022-09-21T03:22:56;8.03;;;7.23;;
13941;SDS011;7043;51.630;7.254;2022-09-21T03:25:22;7.97;;;7.17;;
13941;SDS011;7043;51.630;7.254;2022-09-21T03:27:48;7.33;;;6.63;;
13941;SDS011;7043;51.630;7.254;2022-09-21T03:30:18;7.97;;;6.97;;
13941;SDS011;7043;51.630;7.254;2022-09-21T03:32:44;9.47;;;6.97;;
13941;SDS011;7043;51.630;7.254;2022-09-21T03:35:10;12.47;;;10.87;;
13941;SDS011;7043;51.630;7.254;2022-09-21T03:37:38;12.00;;;10.30;;
13941;SDS011;7043;51.630;7.254;2022-09-21T03:40:04;10.00;;;8.93;;
13941;SDS011;7043;51.630;7.254;2022-09-21T03:42:30;9.47;;;8.17;;
13941;SDS011;7043;51.630;7.254;2022-09-21T03:44:56;9.43;;;7.77;;
13941;SDS011;7043;51.630;7.254;2022-09-21T03:47:22;8.00;;;7.20;;
13941;SDS011;7043;51.630;7.254;2022-09-21T03:49:48;9.73;;;7.60;;
13941;SDS011;7043;51.630;7.254;2022-09-21T03:52:14;10.07;;;7.53;;
13941;SDS011;7043;51.630;7.254;2022-09-21T03:54:40;7.93;;;7.07;;
13941;SDS011;7043;51.630;7.254;2022-09-21T03:57:06;7.77;;;6.90;;
13941;SDS011;7043;51.630;7.254;2022-09-21T03:59:32;8.60;;;6.67;;
13941;SDS011;7043;51.630;7.254;2022-09-21T04:01:59;8.60;;;7.27;;
13941;SDS011;7043;51.630;7.254;2022-09-21T04:04:25;8.80;;;7.40;;
13941;SDS011;7043;51.630;7.254;2022-09-21T04:06:51;9.70;;;7.93;;
13941;SDS011;7043;51.630;7.254;2022-09-21T04:09:17;8.93;;;7.70;;
13941;SDS011;7043;51.630;7.254;2022-09-21T04:11:44;8.90;;;8.00;;
13941;SDS011;7043;51.630;7.254;2022-09-21T04:14:10;9.17;;;8.27;;
13941;SDS011;7043;51.630;7.254;2022-09-21T04:16:36;10.07;;;8.00;;
13941;SDS011;7043;51.630;7.254;2022-09-21T04:19:02;8.70;;;7.80;;
13941;SDS011;7043;51.630;7.254;2022-09-21T04:21:28;8.97;;;7.53;;
13941;SDS011;7043;51.630;7.254;2022-09-21T04:23:54;8.63;;;7.53;;
13941;SDS011;7043;51.630;7.254;2022-09-21T04:26:22;8.97;;;7.30;;
13941;SDS011;7043;51.630;7.254;2022-09-21T04:28:49;7.73;;;6.90;;
13941;SDS011;7043;51.630;7.254;2022-09-21T04:31:15;8.63;;;7.43;;
13941;SDS011;7043;51.630;7.254;2022-09-21T04:33:41;10.20;;;7.60;;
13941;SDS011;7043;51.630;7.254;2022-09-21T04:36:07;8.93;;;7.40;;
13941;SDS011;7043;51.630;7.254;2022-09-21T04:38:33;8.97;;;8.03;;
13941;SDS011;7043;51.630;7.254;2022-09-21T04:40:59;11.50;;;8.37;;
13941;SDS011;7043;51.630;7.254;2022-09-21T04:43:27;8.43;;;7.40;;
13941;SDS011;7043;51.630;7.254;2022-09-21T04:45:53;9.90;;;7.13;;
13941;SDS011;7043;51.630;7.254;2022-09-21T04:48:19;8.70;;;7.80;;
13941;SDS011;7043;51.630;7.254;2022-09-21T04:50:48;8.20;;;7.40;;
13941;SDS011;7043;51.630;7.254;2022-09-21T04:53:14;9.03;;;7.50;;
13941;SDS011;7043;51.630;7.254;2022-09-21T04:55:41;8.90;;;7.37;;
13941;SDS011;7043;51.630;7.254;2022-09-21T04:58:07;8.40;;;7.50;;
13941;SDS011;7043;51.630;7.254;2022-09-21T05:00:33;8.53;;;7.53;;
13941;SDS011;7043;51.630;7.254;2022-09-21T05:02:59;9.67;;;7.83;;
13941;SDS011;7043;51.630;7.254;2022-09-21T05:05:25;8.53;;;7.10;;
13941;SDS011;7043;51.630;7.254;2022-09-21T05:07:51;8.60;;;7.63;;
13941;SDS011;7043;51.630;7.254;2022-09-21T05:10:17;7.40;;;6.70;;
13941;SDS011;7043;51.630;7.254;2022-09-21T05:12:43;8.10;;;7.27;;
13941;SDS011;7043;51.630;7.254;2022-09-21T05:15:10;8.80;;;7.87;;
13941;SDS011;7043;51.630;7.254;2022-09-21T05:17:36;9.53;;;8.20;;
13941;SDS011;7043;51.630;7.254;2022-09-21T05:20:02;9.73;;;8.53;;
13941;SDS011;7043;51.630;7.254;2022-09-21T05:22:29;12.43;;;8.53;;
13941;SDS011;7043;51.630;7.254;2022-09-21T05:24:55;8.97;;;8.07;;
13941;SDS011;7043;51.630;7.254;2022-09-21T05:27:21;13.67;;;7.83;;
13941;SDS011;7043;51.630;7.254;2022-09-21T05:29:47;9.67;;;8.53;;
13941;SDS011;7043;51.630;7.254;2022-09-21T05:35:06;29.77;;;11.03;;
13941;SDS011;7043;51.630;7.254;2022-09-21T05:40:04;14.87;;;9.50;;
13941;SDS011;7043;51.630;7.254;2022-09-21T05:42:30;17.53;;;9.63;;
13941;SDS011;7043;51.630;7.254;2022-09-21T05:44:56;14.57;;;9.13;;
13941;SDS011;7043;51.630;7.254;2022-09-21T05:52:37;15.47;;;9.67;;
13941;SDS011;7043;51.630;7.254;2022-09-21T06:00:19;12.70;;;8.53;;
13941;SDS011;7043;51.630;7.254;2022-09-21T06:05:35;13.90;;;9.03;;
13941;SDS011;7043;51.630;7.254;2022-09-21T06:08:02;12.57;;;8.80;;
13941;SDS011;7043;51.630;7.254;2022-09-21T06:10:29;11.53;;;8.50;;
13941;SDS011;7043;51.630;7.254;2022-09-21T06:12:57;12.27;;;8.93;;
13941;SDS011;7043;51.630;7.254;2022-09-21T06:15:24;13.67;;;9.23;;
13941;SDS011;7043;51.630;7.254;2022-09-21T06:17:52;13.13;;;9.77;;
13941;SDS011;7043;51.630;7.254;2022-09-21T06:20:19;9.47;;;8.33;;
13941;SDS011;7043;51.630;7.254;2022-09-21T06:22:45;13.03;;;9.20;;
13941;SDS011;7043;51.630;7.254;2022-09-21T06:25:11;12.97;;;8.60;;
13941;SDS011;7043;51.630;7.254;2022-09-21T06:27:37;11.33;;;9.03;;
13941;SDS011;7043;51.630;7.254;2022-09-21T06:30:03;12.80;;;9.50;;
13941;SDS011;7043;51.630;7.254;2022-09-21T06:32:29;11.80;;;9.33;;
13941;SDS011;7043;51.630;7.254;2022-09-21T06:34:55;10.93;;;9.47;;
13941;SDS011;7043;51.630;7.254;2022-09-21T06:37:21;13.13;;;9.53;;
13941;SDS011;7043;51.630;7.254;2022-09-21T06:39:47;13.50;;;10.60;;
13941;SDS011;7043;51.630;7.254;2022-09-21T06:42:13;13.87;;;10.70;;
13941;SDS011;7043;51.630;7.254;2022-09-21T06:44:39;11.20;;;9.50;;
13941;SDS011;7043;51.630;7.254;2022-09-21T06:47:05;12.07;;;10.87;;
13941;SDS011;7043;51.630;7.254;2022-09-21T06:49:31;15.40;;;11.57;;
13941;SDS011;7043;51.630;7.254;2022-09-21T06:51:57;13.13;;;10.70;;
13941;SDS011;7043;51.630;7.254;2022-09-21T06:54:24;14.30;;;11.23;;
13941;SDS011;7043;51.630;7.254;2022-09-21T06:56:50;13.20;;;10.57;;
13941;SDS011;7043;51.630;7.254;2022-09-21T06:59:16;11.73;;;10.23;;
13941;SDS011;7043;51.630;7.254;2022-09-21T07:01:42;11.93;;;9.83;;
13941;SDS011;7043;51.630;7.254;2022-09-21T07:04:08;12.00;;;9.30;;
13941;SDS011;7043;51.630;7.254;2022-09-21T07:06:34;14.47;;;10.93;;
13941;SDS011;7043;51.630;7.254;2022-09-21T07:09:00;12.67;;;9.37;;
13941;SDS011;7043;51.630;7.254;2022-09-21T07:11:26;11.93;;;9.70;;
13941;SDS011;7043;51.630;7.254;2022-09-21T07:13:53;10.17;;;8.90;;
13941;SDS011;7043;51.630;7.254;2022-09-21T07:16:20;11.37;;;9.27;;
13941;SDS011;7043;51.630;7.254;2022-09-21T07:18:46;12.10;;;9.47;;
13941;SDS011;7043;51.630;7.254;2022-09-21T07:21:12;10.60;;;8.80;;
13941;SDS011;7043;51.630;7.254;2022-09-21T07:23:39;11.10;;;9.13;;
13941;SDS011;7043;51.630;7.254;2022-09-21T07:26:06;9.60;;;8.27;;
13941;SDS011;7043;51.630;7.254;2022-09-21T07:28:32;11.03;;;8.83;;
13941;SDS011;7043;51.630;7.254;2022-09-21T07:31:04;9.33;;;8.37;;
13941;SDS011;7043;51.630;7.254;2022-09-21T07:33:30;12.90;;;9.10;;
13941;SDS011;7043;51.630;7.254;2022-09-21T07:35:57;13.60;;;9.00;;
13941;SDS011;7043;51.630;7.254;2022-09-21T07:38:24;13.80;;;9.53;;
13941;SDS011;7043;51.630;7.254;2022-09-21T07:40:51;11.33;;;8.77;;
13941;SDS011;7043;51.630;7.254;2022-09-21T07:43:21;11.23;;;8.90;;
13941;SDS011;7043;51.630;7.254;2022-09-21T07:45:53;11.43;;;9.20;;
13941;SDS011;7043;51.630;7.254;2022-09-21T07:48:20;14.27;;;9.67;;
13941;SDS011;7043;51.630;7.254;2022-09-21T07:50:46;11.83;;;9.37;;
13941;SDS011;7043;51.630;7.254;2022-09-21T07:53:13;11.83;;;9.37;;
13941;SDS011;7043;51.630;7.254;2022-09-21T07:55:40;11.20;;;9.63;;
13941;SDS011;7043;51.630;7.254;2022-09-21T07:58:06;12.07;;;9.30;;
13941;SDS011;7043;51.630;7.254;2022-09-21T08:00:51;12.97;;;10.17;;
13941;SDS011;7043;51.630;7.254;2022-09-21T08:03:17;12.23;;;10.00;;
13941;SDS011;7043;51.630;7.254;2022-09-21T08:05:43;14.13;;;10.47;;
13941;SDS011;7043;51.630;7.254;2022-09-21T08:08:09;12.60;;;10.17;;
13941;SDS011;7043;51.630;7.254;2022-09-21T08:10:35;13.13;;;9.80;;
13941;SDS011;7043;51.630;7.254;2022-09-21T08:13:02;13.73;;;9.40;;
13941;SDS011;7043;51.630;7.254;2022-09-21T08:15:27;11.17;;;9.23;;
13941;SDS011;7043;51.630;7.254;2022-09-21T08:17:53;13.17;;;10.10;;
13941;SDS011;7043;51.630;7.254;2022-09-21T08:20:21;10.63;;;9.00;;
13941;SDS011;7043;51.630;7.254;2022-09-21T08:22:47;11.53;;;9.77;;
13941;SDS011;7043;51.630;7.254;2022-09-21T08:25:13;12.73;;;9.40;;
13941;SDS011;7043;51.630;7.254;2022-09-21T08:27:39;12.53;;;10.17;;
13941;SDS011;7043;51.630;7.254;2022-09-21T08:30:06;12.93;;;9.27;;
13941;SDS011;7043;51.630;7.254;2022-09-21T08:32:32;12.33;;;9.40;;
13941;SDS011;7043;51.630;7.254;2022-09-21T08:34:58;12.80;;;9.60;;
13941;SDS011;7043;51.630;7.254;2022-09-21T08:37:24;11.43;;;9.03;;
13941;SDS011;7043;51.630;7.254;2022-09-21T08:39:50;10.60;;;5.90;;
13941;SDS011;7043;51.630;7.254;2022-09-21T08:42:26;8.13;;;5.70;;
13941;SDS011;7043;51.630;7.254;2022-09-21T08:44:58;8.43;;;4.80;;
13941;SDS011;7043;51.630;7.254;2022-09-21T08:47:28;6.60;;;5.00;;
13941;SDS011;7043;51.630;7.254;2022-09-21T08:52:43;8.70;;;5.70;;
13941;SDS011;7043;51.630;7.254;2022-09-21T08:55:14;8.20;;;4.90;;
13941;SDS011;7043;51.630;7.254;2022-09-21T08:57:41;9.83;;;4.77;;
13941;SDS011;7043;51.630;7.254;2022-09-21T09:00:12;8.67;;;4.33;;
13941;SDS011;7043;51.630;7.254;2022-09-21T09:15:27;7.00;;;3.13;;
13941;SDS011;7043;51.630;7.254;2022-09-21T09:18:03;6.37;;;3.37;;
13941;SDS011;7043;51.630;7.254;2022-09-21T09:23:21;6.63;;;2.80;;
13941;SDS011;7043;51.630;7.254;2022-09-21T09:25:45;4.23;;;1.80;;
13941;SDS011;7043;51.630;7.254;2022-09-21T09:28:25;9.03;;;2.63;;
13941;SDS011;7043;51.630;7.254;2022-09-21T09:31:00;7.07;;;2.40;;
13941;SDS011;7043;51.630;7.254;2022-09-21T09:33:39;4.30;;;2.50;;
13941;SDS011;7043;51.630;7.254;2022-09-21T09:36:08;5.47;;;1.80;;
13941;SDS011;7043;51.630;7.254;2022-09-21T09:38:37;4.53;;;2.60;;
13941;SDS011;7043;51.630;7.254;2022-09-21T09:46:35;4.67;;;1.83;;
13941;SDS011;7043;51.630;7.254;2022-09-21T09:51:28;5.83;;;2.17;;
13941;SDS011;7043;51.630;7.254;2022-09-21T09:53:57;5.10;;;1.83;;
13941;SDS011;7043;51.630;7.254;2022-09-21T09:56:24;5.50;;;1.40;;
13941;SDS011;7043;51.630;7.254;2022-09-21T09:58:52;5.70;;;1.80;;
13941;SDS011;7043;51.630;7.254;2022-09-21T10:01:35;4.20;;;1.27;;
13941;SDS011;7043;51.630;7.254;2022-09-21T10:04:05;4.37;;;1.50;;
13941;SDS011;7043;51.630;7.254;2022-09-21T10:06:32;2.27;;;1.30;;
13941;SDS011;7043;51.630;7.254;2022-09-21T10:08:58;3.47;;;1.30;;
13941;SDS011;7043;51.630;7.254;2022-09-21T10:11:33;3.50;;;1.40;;
13941;SDS011;7043;51.630;7.254;2022-09-21T10:14:06;4.40;;;1.60;;
13941;SDS011;7043;51.630;7.254;2022-09-21T10:16:32;3.83;;;1.40;;
13941;SDS011;7043;51.630;7.254;2022-09-21T10:19:05;4.97;;;1.57;;
13941;SDS011;7043;51.630;7.254;2022-09-21T10:21:38;4.80;;;1.80;;
13941;SDS011;7043;51.630;7.254;2022-09-21T10:27:02;4.97;;;0.93;;
13941;SDS011;7043;51.630;7.254;2022-09-21T10:29:30;8.30;;;1.40;;
13941;SDS011;7043;51.630;7.254;2022-09-21T10:32:00;4.60;;;1.10;;
13941;SDS011;7043;51.630;7.254;2022-09-21T10:34:30;4.53;;;1.20;;
13941;SDS011;7043;51.630;7.254;2022-09-21T10:37:00;3.53;;;1.30;;
13941;SDS011;7043;51.630;7.254;2022-09-21T10:39:31;4.53;;;1.27;;
13941;SDS011;7043;51.630;7.254;2022-09-21T10:42:05;5.10;;;1.30;;
13941;SDS011;7043;51.630;7.254;2022-09-21T10:44:33;5.27;;;1.20;;
13941;SDS011;7043;51.630;7.254;2022-09-21T10:47:02;6.33;;;1.53;;
13941;SDS011;7043;51.630;7.254;2022-09-21T10:49:29;4.17;;;1.27;;
13941;SDS011;7043;51.630;7.254;2022-09-21T10:51:56;3.87;;;1.37;;
13941;SDS011;7043;51.630;7.254;2022-09-21T10:54:24;3.87;;;1.17;;
13941;SDS011;7043;51.630;7.254;2022-09-21T10:56:51;3.00;;;1.10;;
13941;SDS011;7043;51.630;7.254;2022-09-21T11:01:44;3.17;;;1.20;;
13941;SDS011;7043;51.630;7.254;2022-09-21T11:04:13;5.10;;;1.20;;
13941;SDS011;7043;51.630;7.254;2022-09-21T11:06:42;4.27;;;1.10;;
13941;SDS011;7043;51.630;7.254;2022-09-21T11:16:59;3.07;;;1.20;;
13941;SDS011;7043;51.630;7.254;2022-09-21T11:22:21;2.80;;;1.00;;
13941;SDS011;7043;51.630;7.254;2022-09-21T11:25:07;2.63;;;1.07;;
13941;SDS011;7043;51.630;7.254;2022-09-21T11:27:40;3.57;;;1.10;;
13941;SDS011;7043;51.630;7.254;2022-09-21T11:45:02;2.13;;;0.97;;
13941;SDS011;7043;51.630;7.254;2022-09-21T11:56:06;3.03;;;0.90;;
13941;SDS011;7043;51.630;7.254;2022-09-21T11:58:40;1.93;;;0.70;;
13941;SDS011;7043;51.630;7.254;2022-09-21T12:01:12;3.08;;;0.95;;
13941;SDS011;7043;51.630;7.254;2022-09-21T12:04:04;3.80;;;0.90;;
13941;SDS011;7043;51.630;7.254;2022-09-21T12:22:13;2.05;;;0.77;;
13941;SDS011;7043;51.630;7.254;2022-09-21T12:27:32;4.25;;;1.40;;
13941;SDS011;7043;51.630;7.254;2022-09-21T12:30:02;4.73;;;1.20;;
13941;SDS011;7043;51.630;7.254;2022-09-21T12:35:29;3.28;;;1.30;;
13941;SDS011;7043;51.630;7.254;2022-09-21T12:40:34;3.17;;;1.00;;
13941;SDS011;7043;51.630;7.254;2022-09-21T12:43:45;3.03;;;1.07;;
13941;SDS011;7043;51.630;7.254;2022-09-21T12:46:12;2.75;;;0.95;;
13941;SDS011;7043;51.630;7.254;2022-09-21T12:48:39;2.73;;;1.20;;
13941;SDS011;7043;51.630;7.254;2022-09-21T12:53:33;4.67;;;1.10;;
13941;SDS011;7043;51.630;7.254;2022-09-21T13:01:00;5.07;;;1.73;;
13941;SDS011;7043;51.630;7.254;2022-09-21T13:06:12;4.33;;;1.10;;
13941;SDS011;7043;51.630;7.254;2022-09-21T13:08:42;4.63;;;1.38;;
13941;SDS011;7043;51.630;7.254;2022-09-21T13:11:09;3.60;;;1.30;;
13941;SDS011;7043;51.630;7.254;2022-09-21T13:13:43;3.00;;;1.10;;
13941;SDS011;7043;51.630;7.254;2022-09-21T13:16:32;2.80;;;1.20;;
13941;SDS011;7043;51.630;7.254;2022-09-21T13:21:43;3.67;;;1.37;;
13941;SDS011;7043;51.630;7.254;2022-09-21T13:24:24;3.90;;;1.37;;
13941;SDS011;7043;51.630;7.254;2022-09-21T13:26:57;3.87;;;1.40;;
13941;SDS011;7043;51.630;7.254;2022-09-21T13:29:32;2.87;;;1.17;;
13941;SDS011;7043;51.630;7.254;2022-09-21T13:34:34;6.70;;;1.30;;
13941;SDS011;7043;51.630;7.254;2022-09-21T13:47:43;3.73;;;0.90;;
13941;SDS011;7043;51.630;7.254;2022-09-21T13:50:23;3.03;;;1.13;;
13941;SDS011;7043;51.630;7.254;2022-09-21T13:52:55;3.08;;;1.30;;
13941;SDS011;7043;51.630;7.254;2022-09-21T13:57:49;2.17;;;1.43;;
13941;SDS011;7043;51.630;7.254;2022-09-21T14:07:41;1.80;;;1.00;;
13941;SDS011;7043;51.630;7.254;2022-09-21T14:10:07;3.20;;;1.03;;
13941;SDS011;7043;51.630;7.254;2022-09-21T14:12:38;4.30;;;1.45;;
13941;SDS011;7043;51.630;7.254;2022-09-21T14:20:32;3.13;;;1.10;;
13941;SDS011;7043;51.630;7.254;2022-09-21T14:25:47;2.80;;;1.20;;
13941;SDS011;7043;51.630;7.254;2022-09-21T14:28:15;3.58;;;1.27;;
13941;SDS011;7043;51.630;7.254;2022-09-21T14:30:47;3.63;;;1.27;;
13941;SDS011;7043;51.630;7.254;2022-09-21T14:33:23;3.17;;;1.17;;
13941;SDS011;7043;51.630;7.254;2022-09-21T14:35:50;3.13;;;1.10;;
13941;SDS011;7043;51.630;7.254;2022-09-21T14:38:27;2.65;;;1.10;;
13941;SDS011;7043;51.630;7.254;2022-09-21T14:41:06;5.55;;;1.75;;
13941;SDS011;7043;51.630;7.254;2022-09-21T14:43:35;3.47;;;1.07;;
13941;SDS011;7043;51.630;7.254;2022-09-21T14:46:21;4.67;;;1.07;;
13941;SDS011;7043;51.630;7.254;2022-09-21T14:59:36;8.13;;;2.17;;
13941;SDS011;7043;51.630;7.254;2022-09-21T15:02:15;5.70;;;1.57;;
13941;SDS011;7043;51.630;7.254;2022-09-21T15:04:50;3.35;;;0.98;;
13941;SDS011;7043;51.630;7.254;2022-09-21T15:07:43;3.22;;;1.10;;
13941;SDS011;7043;51.630;7.254;2022-09-21T15:15:58;2.20;;;0.85;;
13941;SDS011;7043;51.630;7.254;2022-09-21T15:18:29;2.10;;;1.30;;
13941;SDS011;7043;51.630;7.254;2022-09-21T15:20:59;1.80;;;1.02;;
13941;SDS011;7043;51.630;7.254;2022-09-21T15:23:25;2.85;;;1.10;;
13941;SDS011;7043;51.630;7.254;2022-09-21T15:25:53;3.03;;;1.17;;
13941;SDS011;7043;51.630;7.254;2022-09-21T15:28:22;3.28;;;1.30;;
13941;SDS011;7043;51.630;7.254;2022-09-21T15:30:48;3.40;;;1.10;;
13941;SDS011;7043;51.630;7.254;2022-09-21T15:33:15;3.10;;;1.10;;
13941;SDS011;7043;51.630;7.254;2022-09-21T15:35:44;1.60;;;0.90;;
13941;SDS011;7043;51.630;7.254;2022-09-21T15:38:25;4.07;;;1.48;;
13941;SDS011;7043;51.630;7.254;2022-09-21T15:40:51;4.05;;;0.98;;
13941;SDS011;7043;51.630;7.254;2022-09-21T15:43:18;3.43;;;1.40;;
13941;SDS011;7043;51.630;7.254;2022-09-21T15:45:47;3.92;;;1.48;;
13941;SDS011;7043;51.630;7.254;2022-09-21T15:48:18;3.63;;;1.10;;
13941;SDS011;7043;51.630;7.254;2022-09-21T15:50:45;2.35;;;0.90;;
13941;SDS011;7043;51.630;7.254;2022-09-21T15:53:24;2.37;;;0.90;;
13941;SDS011;7043;51.630;7.254;2022-09-21T15:55:50;1.80;;;0.70;;
13941;SDS011;7043;51.630;7.254;2022-09-21T15:58:36;3.27;;;1.00;;
13941;SDS011;7043;51.630;7.254;2022-09-21T16:01:10;4.23;;;1.10;;
13941;SDS011;7043;51.630;7.254;2022-09-21T16:03:37;4.13;;;1.40;;
13941;SDS011;7043;51.630;7.254;2022-09-21T16:08:42;2.40;;;1.00;;
13941;SDS011;7043;51.630;7.254;2022-09-21T16:13:37;5.30;;;2.23;;
13941;SDS011;7043;51.630;7.254;2022-09-21T16:16:22;5.20;;;2.00;;
13941;SDS011;7043;51.630;7.254;2022-09-21T16:18:49;4.07;;;1.63;;
13941;SDS011;7043;51.630;7.254;2022-09-21T16:21:32;5.03;;;1.87;;
13941;SDS011;7043;51.630;7.254;2022-09-21T16:24:18;5.43;;;1.97;;
13941;SDS011;7043;51.630;7.254;2022-09-21T16:26:57;2.40;;;1.73;;
13941;SDS011;7043;51.630;7.254;2022-09-21T16:29:39;2.63;;;1.70;;
13941;SDS011;7043;51.630;7.254;2022-09-21T16:32:28;3.00;;;1.80;;
13941;SDS011;7043;51.630;7.254;2022-09-21T16:35:07;3.77;;;1.97;;
13941;SDS011;7043;51.630;7.254;2022-09-21T16:37:39;3.17;;;1.60;;
13941;SDS011;7043;51.630;7.254;2022-09-21T16:40:06;4.47;;;2.00;;
13941;SDS011;7043;51.630;7.254;2022-09-21T16:42:33;3.63;;;2.03;;
13941;SDS011;7043;51.630;7.254;2022-09-21T16:44:59;4.23;;;1.87;;
13941;SDS011;7043;51.630;7.254;2022-09-21T16:47:27;3.70;;;2.23;;
13941;SDS011;7043;51.630;7.254;2022-09-21T16:49:54;4.53;;;2.93;;
13941;SDS011;7043;51.630;7.254;2022-09-21T16:52:24;4.80;;;4.23;;
13941;SDS011;7043;51.630;7.254;2022-09-21T16:54:52;4.10;;;2.60;;
13941;SDS011;7043;51.630;7.254;2022-09-21T16:57:19;4.37;;;3.57;;
13941;SDS011;7043;51.630;7.254;2022-09-21T16:59:45;4.20;;;3.80;;
13941;SDS011;7043;51.630;7.254;2022-09-21T17:02:13;4.27;;;3.20;;
13941;SDS011;7043;51.630;7.254;2022-09-21T17:04:40;4.23;;;3.80;;
13941;SDS011;7043;51.630;7.254;2022-09-21T17:07:06;5.93;;;3.60;;
13941;SDS011;7043;51.630;7.254;2022-09-21T17:09:35;4.63;;;3.10;;
13941;SDS011;7043;51.630;7.254;2022-09-21T17:12:03;5.20;;;3.60;;
13941;SDS011;7043;51.630;7.254;2022-09-21T17:14:32;4.97;;;4.30;;
13941;SDS011;7043;51.630;7.254;2022-09-21T17:17:04;6.40;;;4.10;;
13941;SDS011;7043;51.630;7.254;2022-09-21T17:19:32;7.10;;;4.70;;
13941;SDS011;7043;51.630;7.254;2022-09-21T17:22:02;7.63;;;6.07;;
13941;SDS011;7043;51.630;7.254;2022-09-21T17:24:29;7.53;;;6.00;;
13941;SDS011;7043;51.630;7.254;2022-09-21T17:26:55;10.83;;;6.40;;
13941;SDS011;7043;51.630;7.254;2022-09-21T17:29:22;8.80;;;6.83;;
13941;SDS011;7043;51.630;7.254;2022-09-21T17:31:51;10.83;;;9.37;;
13941;SDS011;7043;51.630;7.254;2022-09-21T17:34:19;11.30;;;8.07;;
13941;SDS011;7043;51.630;7.254;2022-09-21T17:36:46;11.63;;;8.40;;
13941;SDS011;7043;51.630;7.254;2022-09-21T17:39:12;9.10;;;7.33;;
13941;SDS011;7043;51.630;7.254;2022-09-21T17:41:45;10.20;;;8.70;;
13941;SDS011;7043;51.630;7.254;2022-09-21T17:46:49;6.27;;;4.00;;
13941;SDS011;7043;51.630;7.254;2022-09-21T17:49:16;6.23;;;3.70;;
13941;SDS011;7043;51.630;7.254;2022-09-21T17:51:42;4.43;;;3.20;;
13941;SDS011;7043;51.630;7.254;2022-09-21T17:54:27;15.00;;;6.23;;
13941;SDS011;7043;51.630;7.254;2022-09-21T17:56:58;8.23;;;4.90;;
13941;SDS011;7043;51.630;7.254;2022-09-21T17:59:27;5.83;;;4.63;;
13941;SDS011;7043;51.630;7.254;2022-09-21T18:01:54;7.50;;;4.53;;
13941;SDS011;7043;51.630;7.254;2022-09-21T18:04:24;6.90;;;5.63;;
13941;SDS011;7043;51.630;7.254;2022-09-21T18:06:51;7.73;;;5.43;;
13941;SDS011;7043;51.630;7.254;2022-09-21T18:09:17;6.90;;;4.87;;
13941;SDS011;7043;51.630;7.254;2022-09-21T18:25:12;10.07;;;8.30;;
13941;SDS011;7043;51.630;7.254;2022-09-21T18:27:40;10.67;;;8.20;;
13941;SDS011;7043;51.630;7.254;2022-09-21T18:30:10;10.60;;;8.90;;
13941;SDS011;7043;51.630;7.254;2022-09-21T18:43:17;9.53;;;7.17;;
13941;SDS011;7043;51.630;7.254;2022-09-21T18:45:57;9.23;;;6.63;;
13941;SDS011;7043;51.630;7.254;2022-09-21T18:55:51;12.67;;;8.80;;
13941;SDS011;7043;51.630;7.254;2022-09-21T18:58:17;9.03;;;7.67;;
13941;SDS011;7043;51.630;7.254;2022-09-21T19:00:43;9.77;;;7.80;;
13941;SDS011;7043;51.630;7.254;2022-09-21T19:03:10;8.23;;;7.23;;
13941;SDS011;7043;51.630;7.254;2022-09-21T19:05:39;8.40;;;7.60;;
13941;SDS011;7043;51.630;7.254;2022-09-21T19:16:26;8.37;;;6.83;;
13941;SDS011;7043;51.630;7.254;2022-09-21T19:21:38;7.80;;;6.87;;